Lexington Park, MD

1:44 PM EDT on August 21, 2014 (GMT -0400)
Heards Estates | Change Station
CLOSE
Current Station
Personal Weather Station
Location: Great Mills, MD
Elevation: 120 ft
Nearby Weather Stations

Elev 120 ft 38.27 °N, 76.50 °W | Updated 11 seconds ago

Overcast
Overcast
90.3 °F
Feels Like 102 °F
N
8.1
Wind Variable Wind from ESE
Gusts 8.1 mph

Today
High -- | Low -- °F
--% Chance of Precip.
Yesterday
High -- | Low -- °F
Precip. -- in
6:25 AM 7:51 PM
Waning Crescent, 13% visible
Pressure 30.02 in
Visibility 10.0 miles
Clouds Few 2500 ft
Overcast 25000 ft
Heat Index 102 °F
Dew Point 76 °F
Humidity 63%
Rainfall 0.07 in
Snow Depth Not available.
UV 3 out of 12
Pollen 9.00 out of 12
Air Quality Not available.
Flu Activity Not available.
METAR KNHK 211652Z COR 13007KT 10SM FEW025TCU OVC250 28/23 A3002 RMK AO2 TCU SW SLP166 T02780228

More Conditions Fewer Conditions

Pressure 30.02 in
Visibility 10.0 miles
Clouds Few 2500 ft
Overcast 25000 ft
Heat Index 102 °F
Dew Point 76 °F
Humidity 63%
Rainfall 0.07 in
Snow Depth Not available.
UV 3 out of 12
Pollen 9.00 out of 12
Air Quality Not available.
Flu Activity Not available.
METAR KNHK 211652Z COR 13007KT 10SM FEW025TCU OVC250 28/23 A3002 RMK AO2 TCU SW SLP166 T02780228

More Conditions Fewer Conditions

10-Day Weather Forecast

Almanac

Astronomy

Aug. 21, 2014 Rise Set
Actual Time 6:25 AM EDT 7:51 PM EDT
Civil Twilight 5:58 AM EDT 8:19 PM EDT
Nautical Twilight 5:24 AM EDT 8:52 PM EDT
Astronomical Twilight 4:49 AM EDT 9:27 PM EDT
Moon 2:55 AM EDT 5:17 PM EDT
Length of Visible Light 14h 21m
Length of Day
13h 25m
Tomorrow will be 2m 15s shorter.
Waning Crescent, 13% of the Moon is Illuminated
Today
Waning Crescent
Aug 25
New
Sep 2
First Quarter
Sep 8
Full
Sep 15
Last Quarter

Today's Extremes

State Highs State Lows

Community

WunderPhotos

Upload Photos

1,745,987 photos uploaded!

Nearby

Snow Depth

Station Depth Elevation
No new snow has been reported.

Earthquake Activity

City Distance Mag. Time & Date
No recent earthquake activity has been reported nearby.
Minimum magnitude displayed is 2.5.

Coastal Water Temperatures

Place Temperature
Solomons Island, MD 82.0 °F
Lewisetta, VA 79.0 °F

Nearby Weather Stations